createdAt,value
2023-03-18T00:00:50.187Z,1001.86
2023-03-18T00:01:50.171Z,1001.85
2023-03-18T00:02:50.240Z,1001.89
2023-03-18T00:03:50.202Z,1001.93
2023-03-18T00:04:50.153Z,1002.01
2023-03-18T00:05:50.147Z,1001.99
2023-03-18T00:06:50.128Z,1002.08
2023-03-18T00:07:50.098Z,1002.03
2023-03-18T00:08:50.086Z,1001.97
2023-03-18T00:09:50.090Z,1002.00
2023-03-18T00:10:50.057Z,1001.99
2023-03-18T00:11:50.094Z,1002.01
2023-03-18T00:12:50.048Z,1002.01
2023-03-18T00:13:50.068Z,1002.00
2023-03-18T00:14:50.034Z,1002.07
2023-03-18T00:15:50.095Z,1001.99
2023-03-18T00:16:50.017Z,1002.05
2023-03-18T00:17:50.019Z,1002.04
2023-03-18T00:18:49.981Z,1002.03
2023-03-18T00:19:49.957Z,1001.99
2023-03-18T00:20:49.966Z,1002.04
2023-03-18T00:21:49.964Z,1002.05
2023-03-18T00:22:49.942Z,1002.05
2023-03-18T00:23:49.917Z,1002.01
2023-03-18T00:24:49.942Z,1002.01
2023-03-18T00:25:49.895Z,1001.95
2023-03-18T00:26:49.916Z,1002.00
2023-03-18T00:27:49.873Z,1001.96
2023-03-18T00:28:49.886Z,1001.98
2023-03-18T00:29:49.889Z,1001.95
2023-03-18T00:30:49.833Z,1002.02
2023-03-18T00:31:49.836Z,1002.00
2023-03-18T00:32:49.889Z,1002.00
2023-03-18T00:33:49.831Z,1002.04
2023-03-18T00:34:49.794Z,1002.02
2023-03-18T00:35:49.843Z,1001.99
2023-03-18T00:36:49.786Z,1002.00
2023-03-18T00:37:49.785Z,1002.07
2023-03-18T00:38:49.764Z,1002.05
2023-03-18T00:39:49.739Z,1002.06
2023-03-18T00:40:49.744Z,1002.08
2023-03-18T00:41:49.718Z,1002.10
2023-03-18T00:42:49.712Z,1002.09
2023-03-18T00:43:49.733Z,1002.07
2023-03-18T00:44:49.713Z,1002.07
2023-03-18T00:45:49.718Z,1002.07
2023-03-18T00:46:49.780Z,1002.10
2023-03-18T00:47:49.674Z,1002.08
2023-03-18T00:48:49.665Z,1002.08
2023-03-18T00:49:49.629Z,1002.11
2023-03-18T00:50:49.649Z,1002.12
2023-03-18T00:51:49.651Z,1002.06
2023-03-18T00:52:49.607Z,1002.18
2023-03-18T00:53:49.624Z,1002.18
2023-03-18T00:54:49.576Z,1002.14
2023-03-18T00:55:49.581Z,1002.16
2023-03-18T00:56:49.769Z,1002.13
2023-03-18T00:57:49.567Z,1002.10
2023-03-18T00:58:49.552Z,1002.11
2023-03-18T00:59:49.534Z,1002.09
2023-03-18T01:00:49.569Z,1002.12
2023-03-18T01:01:49.546Z,1002.11
2023-03-18T01:02:49.516Z,1002.06
2023-03-18T01:03:49.503Z,1002.07
2023-03-18T01:04:49.478Z,1002.06
2023-03-18T01:05:49.460Z,1002.08
2023-03-18T01:06:49.448Z,1002.07
2023-03-18T01:07:50.358Z,1002.02
2023-03-18T01:08:49.418Z,1002.01
2023-03-18T01:09:49.426Z,1001.97
2023-03-18T01:10:49.408Z,1001.92
2023-03-18T01:11:49.395Z,1001.92
2023-03-18T01:12:49.390Z,1001.86
2023-03-18T01:13:49.376Z,1001.84
2023-03-18T01:14:49.392Z,1001.83
2023-03-18T01:15:49.355Z,1001.86
2023-03-18T01:16:49.446Z,1001.91
2023-03-18T01:17:49.344Z,1001.90
2023-03-18T01:18:49.315Z,1001.97
2023-03-18T01:19:49.300Z,1001.95
2023-03-18T01:20:49.284Z,1001.94
2023-03-18T01:21:49.289Z,1002.02
2023-03-18T01:22:49.292Z,1002.00
2023-03-18T01:23:49.258Z,1002.00
2023-03-18T01:24:49.267Z,1002.04
2023-03-18T01:25:49.243Z,1001.98
2023-03-18T01:26:49.218Z,1002.01
2023-03-18T01:27:49.221Z,1001.98
2023-03-18T01:28:49.212Z,1002.00
2023-03-18T01:29:49.226Z,1001.99
2023-03-18T01:30:49.187Z,1001.96
2023-03-18T01:31:49.208Z,1001.96
2023-03-18T01:32:49.243Z,1001.96
2023-03-18T01:33:49.160Z,1001.92
2023-03-18T01:34:49.134Z,1001.92
2023-03-18T01:35:49.141Z,1001.91
2023-03-18T01:36:49.116Z,1001.91
2023-03-18T01:37:49.118Z,1001.86
2023-03-18T01:38:49.139Z,1001.87
2023-03-18T01:39:49.078Z,1001.86
2023-03-18T01:40:49.128Z,1001.90
2023-03-18T01:41:49.067Z,1001.87
2023-03-18T01:42:49.049Z,1001.94
2023-03-18T01:43:49.034Z,1001.87
2023-03-18T01:44:49.038Z,1001.87
2023-03-18T01:45:49.096Z,1001.86
2023-03-18T01:46:49.000Z,1001.82
2023-03-18T01:47:49.005Z,1001.79
2023-03-18T01:48:48.979Z,1001.78
2023-03-18T01:49:48.979Z,1001.83
2023-03-18T01:50:48.957Z,1001.89
2023-03-18T01:51:48.949Z,1001.84
2023-03-18T01:52:48.934Z,1001.83
2023-03-18T01:53:48.909Z,1001.82
2023-03-18T01:54:48.924Z,1001.88
2023-03-18T01:55:48.913Z,1001.82
2023-03-18T01:56:48.911Z,1001.83
2023-03-18T01:57:48.887Z,1001.86
2023-03-18T01:58:48.890Z,1001.86
2023-03-18T01:59:48.863Z,1001.83
2023-03-18T02:00:48.868Z,1001.84
2023-03-18T02:01:48.847Z,1001.83
2023-03-18T02:02:48.828Z,1001.85
2023-03-18T02:03:48.812Z,1001.86
2023-03-18T02:04:48.814Z,1001.84
2023-03-18T02:05:48.814Z,1001.85
2023-03-18T02:06:48.782Z,1001.82
2023-03-18T02:07:48.800Z,1001.81
2023-03-18T02:08:48.766Z,1001.82
2023-03-18T02:09:48.751Z,1001.82
2023-03-18T02:10:48.747Z,1001.78
2023-03-18T02:11:48.735Z,1001.75
2023-03-18T02:12:48.721Z,1001.76
2023-03-18T02:13:48.707Z,1001.71
2023-03-18T02:14:48.693Z,1001.73
2023-03-18T02:15:48.677Z,1001.68
2023-03-18T02:16:48.769Z,1001.70
2023-03-18T02:17:48.678Z,1001.67
2023-03-18T02:18:48.641Z,1001.70
2023-03-18T02:19:48.647Z,1001.72
2023-03-18T02:20:48.646Z,1001.69
2023-03-18T02:21:48.658Z,1001.71
2023-03-18T02:22:48.600Z,1001.69
2023-03-18T02:23:48.598Z,1001.72
2023-03-18T02:24:48.569Z,1001.75
2023-03-18T02:25:48.589Z,1001.72
2023-03-18T02:26:48.554Z,1001.71
2023-03-18T02:27:48.553Z,1001.74
2023-03-18T02:28:48.543Z,1001.72
2023-03-18T02:29:48.538Z,1001.72
2023-03-18T02:30:48.524Z,1001.70
2023-03-18T02:31:48.517Z,1001.79
2023-03-18T02:32:48.540Z,1001.79
2023-03-18T02:33:48.494Z,1001.79
2023-03-18T02:34:48.474Z,1001.83
2023-03-18T02:35:48.526Z,1001.86
2023-03-18T02:36:48.439Z,1001.84
2023-03-18T02:37:48.466Z,1001.77
2023-03-18T02:38:48.435Z,1001.80
2023-03-18T02:39:48.446Z,1001.83
2023-03-18T02:40:48.390Z,1001.78
2023-03-18T02:41:48.401Z,1001.83
2023-03-18T02:42:48.374Z,1001.81
2023-03-18T02:43:48.373Z,1001.80
2023-03-18T02:44:48.374Z,1001.76
2023-03-18T02:45:48.369Z,1001.77
2023-03-18T02:46:48.343Z,1001.73
2023-03-18T02:47:48.319Z,1001.77
2023-03-18T02:48:48.356Z,1001.80
2023-03-18T02:49:48.310Z,1001.80
2023-03-18T02:50:48.289Z,1001.84
2023-03-18T02:51:48.288Z,1001.79
2023-03-18T02:52:48.277Z,1001.85
2023-03-18T02:53:48.295Z,1001.82
2023-03-18T02:54:48.253Z,1001.83
2023-03-18T02:55:48.242Z,1001.84
2023-03-18T02:56:48.218Z,1001.82
2023-03-18T02:57:48.219Z,1001.86
2023-03-18T02:58:50.604Z,1001.87
2023-03-18T02:59:48.212Z,1001.85
2023-03-18T03:00:48.192Z,1001.88
2023-03-18T03:01:48.262Z,1001.89
2023-03-18T03:02:48.260Z,1001.80
2023-03-18T03:03:48.156Z,1001.86
2023-03-18T03:04:48.155Z,1001.83
2023-03-18T03:05:48.117Z,1001.86
2023-03-18T03:06:48.110Z,1001.91
2023-03-18T03:07:48.112Z,1001.83
2023-03-18T03:08:48.089Z,1001.85
2023-03-18T03:09:48.116Z,1001.86
2023-03-18T03:10:48.082Z,1001.87
2023-03-18T03:11:48.062Z,1001.91
2023-03-18T03:12:48.068Z,1001.86
2023-03-18T03:13:48.031Z,1001.86
2023-03-18T03:14:48.027Z,1001.88
2023-03-18T03:15:48.046Z,1001.85
2023-03-18T03:16:48.017Z,1001.86
2023-03-18T03:17:47.994Z,1001.92
2023-03-18T03:18:48.027Z,1001.89
2023-03-18T03:19:47.983Z,1001.93
2023-03-18T03:20:47.984Z,1001.95
2023-03-18T03:21:47.955Z,1001.93
2023-03-18T03:22:47.953Z,1001.91
2023-03-18T03:23:47.958Z,1001.94
2023-03-18T03:24:47.930Z,1001.93
2023-03-18T03:25:47.924Z,1001.93
2023-03-18T03:26:47.903Z,1001.97
2023-03-18T03:27:47.878Z,1001.95
2023-03-18T03:28:47.894Z,1001.98
2023-03-18T03:29:47.872Z,1002.04
2023-03-18T03:30:47.916Z,1002.02
2023-03-18T03:31:47.849Z,1002.04
2023-03-18T03:32:47.902Z,1002.07
2023-03-18T03:33:47.836Z,1002.07
2023-03-18T03:34:47.799Z,1002.09
2023-03-18T03:35:47.794Z,1002.07
2023-03-18T03:36:47.797Z,1002.08
2023-03-18T03:37:47.787Z,1002.10
2023-03-18T03:38:47.756Z,1002.08
2023-03-18T03:39:47.744Z,1002.10
2023-03-18T03:40:47.747Z,1002.09
2023-03-18T03:41:47.752Z,1002.12
2023-03-18T03:42:47.736Z,1002.08
2023-03-18T03:43:47.711Z,1002.14
2023-03-18T03:44:47.696Z,1002.17
2023-03-18T03:45:47.690Z,1002.20
2023-03-18T03:46:47.767Z,1002.16
2023-03-18T03:47:47.679Z,1002.15
2023-03-18T03:48:47.667Z,1002.16
2023-03-18T03:49:47.680Z,1002.22
2023-03-18T03:50:47.641Z,1002.19
2023-03-18T03:51:47.621Z,1002.21
2023-03-18T03:52:47.620Z,1002.19
2023-03-18T03:53:47.612Z,1002.23
2023-03-18T03:54:47.639Z,1002.23
2023-03-18T03:55:47.587Z,1002.25
2023-03-18T03:56:47.557Z,1002.27
2023-03-18T03:57:47.571Z,1002.29
2023-03-18T03:58:47.553Z,1002.29
2023-03-18T03:59:47.554Z,1002.32
2023-03-18T04:00:47.538Z,1002.35
2023-03-18T04:01:47.511Z,1002.36
2023-03-18T04:02:47.579Z,1002.38
2023-03-18T04:03:47.541Z,1002.41
2023-03-18T04:04:47.497Z,1002.41
2023-03-18T04:05:47.458Z,1002.40
2023-03-18T04:06:47.461Z,1002.40
2023-03-18T04:07:47.433Z,1002.39
2023-03-18T04:08:47.426Z,1002.43
2023-03-18T04:09:47.427Z,1002.50
2023-03-18T04:10:47.437Z,1002.49
2023-03-18T04:11:47.413Z,1002.53
2023-03-18T04:12:47.390Z,1002.62
2023-03-18T04:13:47.417Z,1002.58
2023-03-18T04:14:48.008Z,1002.57
2023-03-18T04:15:47.471Z,1002.57
2023-03-18T04:16:47.357Z,1002.58
2023-03-18T04:17:47.343Z,1002.58
2023-03-18T04:18:47.319Z,1002.59
2023-03-18T04:19:47.309Z,1002.60
2023-03-18T04:20:47.309Z,1002.61
2023-03-18T04:21:47.300Z,1002.61
2023-03-18T04:22:47.279Z,1002.55
2023-03-18T04:23:47.262Z,1002.54
2023-03-18T04:24:47.279Z,1002.54
2023-03-18T04:25:47.262Z,1002.56
2023-03-18T04:26:47.325Z,1002.60
2023-03-18T04:27:47.221Z,1002.62
2023-03-18T04:28:47.209Z,1002.60
2023-03-18T04:29:47.242Z,1002.61
2023-03-18T04:30:47.185Z,1002.62
2023-03-18T04:31:47.233Z,1002.61
2023-03-18T04:32:47.218Z,1002.69
2023-03-18T04:33:47.151Z,1002.75
2023-03-18T04:34:47.159Z,1002.83
2023-03-18T04:35:47.163Z,1002.80
2023-03-18T04:36:47.129Z,1002.81
2023-03-18T04:37:47.115Z,1002.81
2023-03-18T04:38:47.107Z,1002.85
2023-03-18T04:39:47.097Z,1002.84
2023-03-18T04:40:47.089Z,1002.89
2023-03-18T04:41:47.077Z,1002.87
2023-03-18T04:42:47.059Z,1002.85
2023-03-18T04:43:47.055Z,1002.86
2023-03-18T04:44:47.039Z,1002.85
2023-03-18T04:45:47.086Z,1002.91
2023-03-18T04:46:47.032Z,1002.89
2023-03-18T04:47:46.994Z,1002.95
2023-03-18T04:48:47.018Z,1002.98
2023-03-18T04:49:46.977Z,1003.02
2023-03-18T04:50:46.989Z,1002.96
2023-03-18T04:51:46.959Z,1002.90
2023-03-18T04:52:46.946Z,1002.89
2023-03-18T04:53:46.927Z,1002.85
2023-03-18T04:54:46.934Z,1002.85
2023-03-18T04:55:46.932Z,1002.89
2023-03-18T04:56:46.905Z,1002.90
2023-03-18T04:57:46.923Z,1002.93
2023-03-18T04:58:46.889Z,1002.92
2023-03-18T04:59:46.903Z,1002.93
2023-03-18T05:00:46.933Z,1002.92
2023-03-18T05:01:46.898Z,1002.93
2023-03-18T05:02:46.868Z,1002.90
2023-03-18T05:03:46.902Z,1002.91
2023-03-18T05:04:46.837Z,1002.97
2023-03-18T05:05:46.812Z,1002.97
2023-03-18T05:06:46.806Z,1003.02
2023-03-18T05:07:46.798Z,1002.96
2023-03-18T05:08:46.784Z,1003.00
2023-03-18T05:09:46.752Z,1002.99
2023-03-18T05:10:46.748Z,1003.01
2023-03-18T05:11:46.769Z,1003.03
2023-03-18T05:12:46.752Z,1003.04
2023-03-18T05:13:46.726Z,1003.04
2023-03-18T05:14:46.736Z,1003.02
2023-03-18T05:15:46.714Z,1002.97
2023-03-18T05:16:46.710Z,1003.02
2023-03-18T05:17:46.698Z,1003.01
2023-03-18T05:18:46.675Z,1003.04
2023-03-18T05:19:46.655Z,1003.03
2023-03-18T05:20:46.652Z,1003.08
2023-03-18T05:21:46.633Z,1003.05
2023-03-18T05:22:46.612Z,1003.09
2023-03-18T05:23:46.602Z,1003.05
2023-03-18T05:24:46.590Z,1003.05
2023-03-18T05:25:46.601Z,1003.03
2023-03-18T05:26:46.648Z,1003.04
2023-03-18T05:27:46.578Z,1003.05
2023-03-18T05:28:46.582Z,1003.05
2023-03-18T05:29:46.547Z,1003.09
2023-03-18T05:30:46.546Z,1003.08
2023-03-18T05:31:46.686Z,1003.05
2023-03-18T05:32:46.621Z,1003.03
2023-03-18T05:33:46.546Z,1003.01
2023-03-18T05:34:46.507Z,1003.03
2023-03-18T05:35:46.502Z,1002.98
2023-03-18T05:36:46.469Z,1003.04
2023-03-18T05:37:46.470Z,1003.03
2023-03-18T05:38:46.439Z,1002.99
2023-03-18T05:39:46.432Z,1003.05
2023-03-18T05:40:46.460Z,1003.10
2023-03-18T05:41:46.451Z,1003.06
2023-03-18T05:42:55.937Z,1003.09
2023-03-18T05:43:47.386Z,1003.10
2023-03-18T05:44:46.403Z,1003.14
2023-03-18T05:45:46.500Z,1003.10
2023-03-18T05:46:46.364Z,1003.13
2023-03-18T05:47:46.366Z,1003.11
2023-03-18T05:48:46.342Z,1003.10
2023-03-18T05:49:46.360Z,1003.04
2023-03-18T05:50:46.377Z,1003.07
2023-03-18T05:51:46.322Z,1003.07
2023-03-18T05:52:46.316Z,1003.04
2023-03-18T05:53:46.306Z,1003.05
2023-03-18T05:54:46.261Z,1003.02
2023-03-18T05:55:46.272Z,1003.05
2023-03-18T05:56:46.271Z,1003.09
2023-03-18T05:57:46.229Z,1003.08
2023-03-18T05:58:46.235Z,1003.12
2023-03-18T05:59:46.216Z,1003.09
2023-03-18T06:00:46.216Z,1003.13
2023-03-18T06:01:46.286Z,1003.14
2023-03-18T06:02:46.244Z,1003.12
2023-03-18T06:03:46.210Z,1003.19
2023-03-18T06:04:46.173Z,1003.14
2023-03-18T06:05:46.192Z,1003.14
2023-03-18T06:06:46.160Z,1003.21
2023-03-18T06:07:46.140Z,1003.13
2023-03-18T06:08:46.137Z,1003.14
2023-03-18T06:09:46.134Z,1003.13
2023-03-18T06:10:46.135Z,1003.17
2023-03-18T06:11:46.114Z,1003.15
2023-03-18T06:12:46.121Z,1003.16
2023-03-18T06:13:46.095Z,1003.16
2023-03-18T06:14:46.053Z,1003.14
2023-03-18T06:15:47.642Z,1003.12
2023-03-18T06:16:46.101Z,1003.12
2023-03-18T06:17:46.072Z,1003.13
2023-03-18T06:18:46.106Z,1003.11
2023-03-18T06:19:45.999Z,1003.10
2023-03-18T06:20:45.985Z,1003.05
2023-03-18T06:21:46.028Z,1003.11
2023-03-18T06:22:46.001Z,1003.15
2023-03-18T06:23:45.985Z,1003.14
2023-03-18T06:24:48.304Z,1003.16
2023-03-18T06:25:46.006Z,1003.17
2023-03-18T06:26:45.976Z,1003.17
2023-03-18T06:27:45.926Z,1003.09
2023-03-18T06:28:45.902Z,1003.16
2023-03-18T06:29:45.920Z,1003.16
2023-03-18T06:30:46.014Z,1003.20
2023-03-18T06:31:45.897Z,1003.22
2023-03-18T06:32:45.906Z,1003.19
2023-03-18T06:33:45.857Z,1003.25
2023-03-18T06:34:45.868Z,1003.24
2023-03-18T06:35:45.870Z,1003.28
2023-03-18T06:36:45.821Z,1003.29
2023-03-18T06:37:45.835Z,1003.26
2023-03-18T06:38:45.833Z,1003.27
2023-03-18T06:39:45.811Z,1003.31
2023-03-18T06:40:45.776Z,1003.31
2023-03-18T06:41:45.784Z,1003.38
2023-03-18T06:42:45.781Z,1003.38
2023-03-18T06:43:45.790Z,1003.44
2023-03-18T06:44:45.746Z,1003.40
2023-03-18T06:45:45.731Z,1003.38
2023-03-18T06:46:45.755Z,1003.37
2023-03-18T06:47:45.716Z,1003.33
2023-03-18T06:48:45.747Z,1003.35
2023-03-18T06:49:45.688Z,1003.31
2023-03-18T06:50:45.684Z,1003.39
2023-03-18T06:51:45.671Z,1003.38
2023-03-18T06:52:45.665Z,1003.34
2023-03-18T06:53:45.653Z,1003.37
2023-03-18T06:54:45.619Z,1003.39
2023-03-18T06:55:45.600Z,1003.35
2023-03-18T06:56:46.377Z,1003.33
2023-03-18T06:57:45.626Z,1003.36
2023-03-18T06:58:45.706Z,1003.32
2023-03-18T06:59:45.653Z,1003.34
2023-03-18T07:00:45.679Z,1003.35
2023-03-18T07:01:45.631Z,1003.38
2023-03-18T07:02:45.533Z,1003.38
2023-03-18T07:03:45.530Z,1003.38
2023-03-18T07:04:45.705Z,1003.34
2023-03-18T07:05:45.496Z,1003.33
2023-03-18T07:06:45.527Z,1003.35
2023-03-18T07:07:45.513Z,1003.39
2023-03-18T07:08:45.480Z,1003.37
2023-03-18T07:09:45.492Z,1003.39
2023-03-18T07:10:45.476Z,1003.42
2023-03-18T07:11:45.440Z,1003.47
2023-03-18T07:12:45.446Z,1003.46
2023-03-18T07:13:45.439Z,1003.48
2023-03-18T07:14:45.407Z,1003.49
2023-03-18T07:15:45.436Z,1003.45
2023-03-18T07:16:45.405Z,1003.49
2023-03-18T07:17:45.385Z,1003.49
2023-03-18T07:18:45.378Z,1003.53
2023-03-18T07:19:45.401Z,1003.55
2023-03-18T07:20:45.359Z,1003.56
2023-03-18T07:21:45.321Z,1003.57
2023-03-18T07:22:45.353Z,1003.54
2023-03-18T07:23:45.325Z,1003.58
2023-03-18T07:24:45.321Z,1003.56
2023-03-18T07:25:45.320Z,1003.55
2023-03-18T07:26:45.291Z,1003.56
2023-03-18T07:27:45.285Z,1003.54
2023-03-18T07:28:45.279Z,1003.52
2023-03-18T07:29:45.253Z,1003.53
2023-03-18T07:30:45.351Z,1003.55
2023-03-18T07:31:45.246Z,1003.54
2023-03-18T07:32:45.215Z,1003.53
2023-03-18T07:33:45.247Z,1003.52
2023-03-18T07:34:45.195Z,1003.57
2023-03-18T07:35:45.243Z,1003.56
2023-03-18T07:36:45.212Z,1003.55
2023-03-18T07:37:45.149Z,1003.59
2023-03-18T07:38:45.141Z,1003.57
2023-03-18T07:39:45.153Z,1003.58
2023-03-18T07:40:45.158Z,1003.57
2023-03-18T07:41:45.159Z,1003.59
2023-03-18T07:42:45.107Z,1003.63
2023-03-18T07:43:45.115Z,1003.60
2023-03-18T07:44:45.111Z,1003.67
2023-03-18T07:45:45.075Z,1003.69
2023-03-18T07:46:45.173Z,1003.65
2023-03-18T07:47:47.090Z,1003.66
2023-03-18T07:48:45.051Z,1003.66
2023-03-18T07:49:45.024Z,1003.64
2023-03-18T07:50:45.008Z,1003.71
2023-03-18T07:51:45.010Z,1003.67
2023-03-18T07:52:44.981Z,1003.60
2023-03-18T07:53:45.090Z,1003.64
2023-03-18T07:54:44.987Z,1003.60
2023-03-18T07:55:45.035Z,1003.57
2023-03-18T07:56:45.007Z,1003.67
2023-03-18T07:57:44.994Z,1003.62
2023-03-18T07:58:44.906Z,1003.61
2023-03-18T07:59:44.931Z,1003.59
2023-03-18T08:00:45.373Z,1003.62
2023-03-18T08:01:44.892Z,1003.59
2023-03-18T08:02:44.876Z,1003.64
2023-03-18T08:03:44.924Z,1003.65
2023-03-18T08:04:44.880Z,1003.65
2023-03-18T08:05:44.861Z,1003.65
2023-03-18T08:06:44.831Z,1003.69
2023-03-18T08:07:44.801Z,1003.67
2023-03-18T08:08:44.881Z,1003.70
2023-03-18T08:09:44.836Z,1003.71
2023-03-18T08:10:44.770Z,1003.66
2023-03-18T08:11:44.767Z,1003.67
2023-03-18T08:12:52.528Z,1003.69
2023-03-18T08:13:45.770Z,1003.71
2023-03-18T08:14:44.774Z,1003.69
2023-03-18T08:15:44.745Z,1003.72
2023-03-18T08:16:44.796Z,1003.73
2023-03-18T08:17:44.709Z,1003.72
2023-03-18T08:18:44.712Z,1003.72
2023-03-18T08:19:44.709Z,1003.71
2023-03-18T08:20:44.708Z,1003.74
2023-03-18T08:21:44.659Z,1003.70
2023-03-18T08:22:44.634Z,1003.65
2023-03-18T08:23:44.664Z,1003.66
2023-03-18T08:24:45.634Z,1003.72
2023-03-18T08:25:44.619Z,1003.72
2023-03-18T08:26:44.602Z,1003.71
2023-03-18T08:27:44.588Z,1003.68
2023-03-18T08:28:44.589Z,1003.72
2023-03-18T08:29:44.591Z,1003.70
2023-03-18T08:30:44.539Z,1003.69
2023-03-18T08:31:44.584Z,1003.69
2023-03-18T08:32:44.691Z,1003.70
2023-03-18T08:33:44.539Z,1003.72
2023-03-18T08:34:44.532Z,1003.69
2023-03-18T08:35:44.511Z,1003.71
2023-03-18T08:36:44.487Z,1003.71
2023-03-18T08:37:44.503Z,1003.74
2023-03-18T08:38:44.501Z,1003.76
2023-03-18T08:39:44.486Z,1003.75
2023-03-18T08:40:44.479Z,1003.76
2023-03-18T08:41:45.844Z,1003.77
2023-03-18T08:42:44.451Z,1003.77
2023-03-18T08:43:44.439Z,1003.71
2023-03-18T08:44:44.407Z,1003.74
2023-03-18T08:45:44.577Z,1003.80
2023-03-18T08:46:44.361Z,1003.76
2023-03-18T08:47:44.385Z,1003.76
2023-03-18T08:48:44.353Z,1003.74
2023-03-18T08:49:44.353Z,1003.77
2023-03-18T08:50:44.345Z,1003.78
2023-03-18T08:51:44.332Z,1003.75
2023-03-18T08:52:44.340Z,1003.73
2023-03-18T08:53:44.340Z,1003.76
2023-03-18T08:54:44.271Z,1003.79
2023-03-18T08:55:44.280Z,1003.75
2023-03-18T08:56:44.312Z,1003.77
2023-03-18T08:57:44.271Z,1003.77
2023-03-18T08:58:44.234Z,1003.72
2023-03-18T08:59:44.237Z,1003.72
2023-03-18T09:00:44.366Z,1003.71
2023-03-18T09:01:44.226Z,1003.71
2023-03-18T09:02:44.211Z,1003.71
2023-03-18T09:03:44.249Z,1003.74
2023-03-18T09:04:44.170Z,1003.75
2023-03-18T09:05:44.167Z,1003.76
2023-03-18T09:06:44.176Z,1003.77
2023-03-18T09:07:44.150Z,1003.69
2023-03-18T09:08:44.206Z,1003.72
2023-03-18T09:09:44.541Z,1003.71
2023-03-18T09:10:44.095Z,1003.71
2023-03-18T09:11:44.113Z,1003.65
2023-03-18T09:12:44.090Z,1003.68
2023-03-18T09:13:44.069Z,1003.67
2023-03-18T09:14:44.336Z,1003.68
2023-03-18T09:15:44.099Z,1003.69
2023-03-18T09:16:44.107Z,1003.64
2023-03-18T09:17:59.979Z,1003.67
2023-03-18T09:18:47.648Z,1003.64
2023-03-18T09:19:44.066Z,1003.68
2023-03-18T09:20:44.029Z,1003.66
2023-03-18T09:21:43.999Z,1003.72
2023-03-18T09:22:43.992Z,1003.72
2023-03-18T09:23:43.963Z,1003.72
2023-03-18T09:24:43.964Z,1003.65
2023-03-18T09:25:43.935Z,1003.69
2023-03-18T09:26:43.936Z,1003.71
2023-03-18T09:27:43.932Z,1003.72
2023-03-18T09:28:43.912Z,1003.72
2023-03-18T09:29:43.884Z,1003.68
2023-03-18T09:30:43.985Z,1003.68
2023-03-18T09:31:43.894Z,1003.61
2023-03-18T09:32:43.881Z,1003.61
2023-03-18T09:33:43.870Z,1003.60
2023-03-18T09:34:43.872Z,1003.66
2023-03-18T09:35:43.867Z,1003.66
2023-03-18T09:36:43.847Z,1003.69
2023-03-18T09:37:43.814Z,1003.64
2023-03-18T09:38:43.809Z,1003.62
2023-03-18T09:39:43.812Z,1003.58
2023-03-18T09:40:43.796Z,1003.65
2023-03-18T09:41:43.791Z,1003.61
2023-03-18T09:42:43.746Z,1003.58
2023-03-18T09:43:43.801Z,1003.55
2023-03-18T09:44:43.767Z,1003.62
2023-03-18T09:45:43.809Z,1003.61
2023-03-18T09:46:43.844Z,1003.59
2023-03-18T09:47:43.682Z,1003.62
2023-03-18T09:48:43.727Z,1003.68
2023-03-18T09:49:43.729Z,1003.60
2023-03-18T09:50:43.669Z,1003.65
2023-03-18T09:51:43.662Z,1003.58
2023-03-18T09:52:43.642Z,1003.53
2023-03-18T09:53:43.637Z,1003.53
2023-03-18T09:54:43.739Z,1003.62
2023-03-18T09:55:43.646Z,1003.64
2023-03-18T09:56:43.604Z,1003.70
2023-03-18T09:57:43.587Z,1003.68
2023-03-18T09:58:43.613Z,1003.67
2023-03-18T09:59:43.598Z,1003.64
2023-03-18T10:00:43.546Z,1003.67
2023-03-18T10:01:43.602Z,1003.64
2023-03-18T10:02:43.520Z,1003.62
2023-03-18T10:03:43.569Z,1003.64
2023-03-18T10:04:43.550Z,1003.69
2023-03-18T10:05:43.539Z,1003.65
2023-03-18T10:06:43.506Z,1003.67
2023-03-18T10:07:43.526Z,1003.62
2023-03-18T10:08:43.488Z,1003.64
2023-03-18T10:09:43.465Z,1003.66
2023-03-18T10:10:43.483Z,1003.66
2023-03-18T10:11:43.415Z,1003.67
2023-03-18T10:12:43.444Z,1003.70
2023-03-18T10:13:43.426Z,1003.71
2023-03-18T10:14:43.399Z,1003.71
2023-03-18T10:15:43.448Z,1003.66
2023-03-18T10:16:43.359Z,1003.67
2023-03-18T10:17:43.390Z,1003.69
2023-03-18T10:18:43.355Z,1003.72
2023-03-18T10:19:43.352Z,1003.68
2023-03-18T10:20:43.335Z,1003.71
2023-03-18T10:21:43.346Z,1003.60
2023-03-18T10:22:43.335Z,1003.70
2023-03-18T10:23:43.323Z,1003.70
2023-03-18T10:24:43.279Z,1003.72
2023-03-18T10:25:43.280Z,1003.72
2023-03-18T10:26:43.297Z,1003.72
2023-03-18T10:27:43.280Z,1003.75
2023-03-18T10:28:43.284Z,1003.74
2023-03-18T10:29:43.219Z,1003.76
2023-03-18T10:30:43.212Z,1003.74
2023-03-18T10:31:43.218Z,1003.79
2023-03-18T10:32:49.820Z,1003.82
2023-03-18T10:33:44.221Z,1003.76
2023-03-18T10:34:43.163Z,1003.81
2023-03-18T10:35:43.194Z,1003.76
2023-03-18T10:36:43.156Z,1003.75
2023-03-18T10:37:43.213Z,1003.72
2023-03-18T10:38:43.143Z,1003.70
2023-03-18T10:39:43.112Z,1003.70
2023-03-18T10:40:43.117Z,1003.74
2023-03-18T10:41:43.110Z,1003.73
2023-03-18T10:42:43.096Z,1003.77
2023-03-18T10:43:43.077Z,1003.76
2023-03-18T10:44:43.123Z,1003.75
2023-03-18T10:45:43.047Z,1003.80
2023-03-18T10:46:43.195Z,1003.76
2023-03-18T10:47:43.050Z,1003.77
2023-03-18T10:48:43.064Z,1003.74
2023-03-18T10:49:43.023Z,1003.80
2023-03-18T10:50:43.026Z,1003.75
2023-03-18T10:51:43.004Z,1003.76
2023-03-18T10:52:42.991Z,1003.73
2023-03-18T10:53:42.991Z,1003.76
2023-03-18T10:54:42.948Z,1003.74
2023-03-18T10:55:42.960Z,1003.75
2023-03-18T10:56:42.954Z,1003.77
2023-03-18T10:57:42.944Z,1003.74
2023-03-18T10:58:42.920Z,1003.75
2023-03-18T10:59:42.900Z,1003.71
2023-03-18T11:00:42.903Z,1003.73
2023-03-18T11:01:42.957Z,1003.69
2023-03-18T11:02:42.894Z,1003.69
2023-03-18T11:03:42.858Z,1003.66
2023-03-18T11:04:42.853Z,1003.72
2023-03-18T11:05:42.848Z,1003.72
2023-03-18T11:06:42.816Z,1003.61
2023-03-18T11:07:42.813Z,1003.70
2023-03-18T11:08:42.802Z,1003.68
2023-03-18T11:09:42.819Z,1003.70
2023-03-18T11:10:42.794Z,1003.68
2023-03-18T11:11:42.790Z,1003.63
2023-03-18T11:12:42.749Z,1003.69
2023-03-18T11:13:42.770Z,1003.66
2023-03-18T11:14:42.733Z,1003.67
2023-03-18T11:15:42.779Z,1003.71
2023-03-18T11:16:42.733Z,1003.68
2023-03-18T11:17:42.695Z,1003.65
2023-03-18T11:18:42.687Z,1003.64
2023-03-18T11:19:42.699Z,1003.70
2023-03-18T11:20:42.709Z,1003.71
2023-03-18T11:21:42.660Z,1003.70
2023-03-18T11:22:42.634Z,1003.71
2023-03-18T11:23:42.619Z,1003.70
2023-03-18T11:24:42.736Z,1003.70
2023-03-18T11:25:42.636Z,1003.64
2023-03-18T11:26:42.607Z,1003.67
2023-03-18T11:27:42.580Z,1003.74
2023-03-18T11:28:42.584Z,1003.75
2023-03-18T11:29:42.884Z,1003.70
2023-03-18T11:30:42.880Z,1003.69
2023-03-18T11:31:42.626Z,1003.76
2023-03-18T11:32:42.574Z,1003.68
2023-03-18T11:33:42.532Z,1003.78
2023-03-18T11:34:42.514Z,1003.68
2023-03-18T11:35:42.566Z,1003.71
2023-03-18T11:36:42.494Z,1003.72
2023-03-18T11:37:42.528Z,1003.74
2023-03-18T11:38:42.481Z,1003.73
2023-03-18T11:39:42.462Z,1003.77
2023-03-18T11:40:42.471Z,1003.79
2023-03-18T11:41:42.453Z,1003.75
2023-03-18T11:42:42.438Z,1003.73
2023-03-18T11:43:42.441Z,1003.78
2023-03-18T11:44:42.402Z,1003.67
2023-03-18T11:45:42.409Z,1003.66
2023-03-18T11:46:42.447Z,1003.67
2023-03-18T11:47:42.362Z,1003.59
2023-03-18T11:48:42.371Z,1003.59
2023-03-18T11:49:42.369Z,1003.65
2023-03-18T11:50:42.339Z,1003.63
2023-03-18T11:51:42.317Z,1003.61
2023-03-18T11:52:42.347Z,1003.65
2023-03-18T11:53:42.321Z,1003.66
2023-03-18T11:54:42.284Z,1003.58
2023-03-18T11:55:42.275Z,1003.59
2023-03-18T11:56:42.253Z,1003.62
2023-03-18T11:57:42.318Z,1003.60
2023-03-18T11:58:42.242Z,1003.59
2023-03-18T11:59:42.233Z,1003.64
2023-03-18T12:00:42.236Z,1003.66
2023-03-18T12:01:42.274Z,1003.67
2023-03-18T12:02:42.225Z,1003.67
2023-03-18T12:03:42.189Z,1003.65
2023-03-18T12:04:42.256Z,1003.59
2023-03-18T12:05:42.172Z,1003.64